UHBB 252230Z 22001MPS CAVOK 12/05 Q1006 R36/090060 NOSIG RMK QFE737/0983
QNH:(hPa/inHg/mmHg)1006 / 29.71 / 755
QFE:(hPa/inHg/mmHg)982 / 29.01 / 737
Temperature12
Dew Point5
Visibility> 10000
WeatherCAVOK
Cloud Cover
Transition Height900 m./3600 ft.
Transition LevelFL60
SQUAWK